sensor_id;sensor_type;location;lat;lon;timestamp;P1;durP1;ratioP1;P2;durP2;ratioP2
55489;SDS011;44029;52.956;4.772;2022-12-18T00:01:43;67.63;;;19.50;;
55489;SDS011;44029;52.956;4.772;2022-12-18T00:04:14;63.75;;;19.48;;
55489;SDS011;44029;52.956;4.772;2022-12-18T00:06:44;60.75;;;17.92;;
55489;SDS011;44029;52.956;4.772;2022-12-18T00:09:10;47.45;;;16.88;;
55489;SDS011;44029;52.956;4.772;2022-12-18T00:11:35;63.70;;;19.98;;
55489;SDS011;44029;52.956;4.772;2022-12-18T00:14:01;59.08;;;18.30;;
55489;SDS011;44029;52.956;4.772;2022-12-18T00:16:27;60.95;;;17.88;;
55489;SDS011;44029;52.956;4.772;2022-12-18T00:18:54;55.10;;;19.77;;
55489;SDS011;44029;52.956;4.772;2022-12-18T00:21:20;55.42;;;19.67;;
55489;SDS011;44029;52.956;4.772;2022-12-18T00:23:47;66.90;;;21.83;;
55489;SDS011;44029;52.956;4.772;2022-12-18T00:26:14;50.92;;;17.80;;
55489;SDS011;44029;52.956;4.772;2022-12-18T00:28:43;59.30;;;20.10;;
55489;SDS011;44029;52.956;4.772;2022-12-18T00:31:10;55.63;;;20.27;;
55489;SDS011;44029;52.956;4.772;2022-12-18T00:33:37;46.78;;;17.17;;
55489;SDS011;44029;52.956;4.772;2022-12-18T00:36:07;49.75;;;19.55;;
55489;SDS011;44029;52.956;4.772;2022-12-18T00:38:36;59.65;;;20.65;;
55489;SDS011;44029;52.956;4.772;2022-12-18T00:41:02;66.00;;;18.90;;
55489;SDS011;44029;52.956;4.772;2022-12-18T00:43:28;47.47;;;16.60;;
55489;SDS011;44029;52.956;4.772;2022-12-18T00:45:53;65.28;;;18.65;;
55489;SDS011;44029;52.956;4.772;2022-12-18T00:48:19;64.30;;;20.08;;
55489;SDS011;44029;52.956;4.772;2022-12-18T00:50:45;58.60;;;21.08;;
55489;SDS011;44029;52.956;4.772;2022-12-18T00:53:10;54.42;;;17.92;;
55489;SDS011;44029;52.956;4.772;2022-12-18T00:55:37;61.15;;;17.73;;
55489;SDS011;44029;52.956;4.772;2022-12-18T00:58:04;77.65;;;20.88;;
55489;SDS011;44029;52.956;4.772;2022-12-18T01:00:29;58.10;;;19.08;;
55489;SDS011;44029;52.956;4.772;2022-12-18T01:02:55;65.50;;;18.95;;
55489;SDS011;44029;52.956;4.772;2022-12-18T01:05:20;82.90;;;22.27;;
55489;SDS011;44029;52.956;4.772;2022-12-18T01:07:45;59.90;;;19.17;;
55489;SDS011;44029;52.956;4.772;2022-12-18T01:10:11;56.35;;;19.40;;
55489;SDS011;44029;52.956;4.772;2022-12-18T01:12:37;55.85;;;20.58;;
55489;SDS011;44029;52.956;4.772;2022-12-18T01:15:04;66.22;;;20.75;;
55489;SDS011;44029;52.956;4.772;2022-12-18T01:17:31;69.10;;;20.73;;
55489;SDS011;44029;52.956;4.772;2022-12-18T01:19:57;63.90;;;19.58;;
55489;SDS011;44029;52.956;4.772;2022-12-18T01:22:22;59.55;;;22.20;;
55489;SDS011;44029;52.956;4.772;2022-12-18T01:24:47;60.83;;;18.42;;
55489;SDS011;44029;52.956;4.772;2022-12-18T01:27:13;69.43;;;19.20;;
55489;SDS011;44029;52.956;4.772;2022-12-18T01:29:38;55.95;;;18.92;;
55489;SDS011;44029;52.956;4.772;2022-12-18T01:32:04;54.25;;;20.15;;
55489;SDS011;44029;52.956;4.772;2022-12-18T01:34:29;65.82;;;21.05;;
55489;SDS011;44029;52.956;4.772;2022-12-18T01:36:54;66.05;;;19.65;;
55489;SDS011;44029;52.956;4.772;2022-12-18T01:39:20;70.78;;;20.88;;
55489;SDS011;44029;52.956;4.772;2022-12-18T01:41:45;62.30;;;18.40;;
55489;SDS011;44029;52.956;4.772;2022-12-18T01:47:18;149.88;;;45.75;;
55489;SDS011;44029;52.956;4.772;2022-12-18T01:49:54;60.42;;;19.85;;
55489;SDS011;44029;52.956;4.772;2022-12-18T01:52:21;57.13;;;16.83;;
55489;SDS011;44029;52.956;4.772;2022-12-18T01:54:48;83.15;;;21.75;;
55489;SDS011;44029;52.956;4.772;2022-12-18T01:57:16;60.17;;;19.23;;
55489;SDS011;44029;52.956;4.772;2022-12-18T01:59:43;65.93;;;19.38;;
55489;SDS011;44029;52.956;4.772;2022-12-18T02:02:12;62.22;;;18.73;;
55489;SDS011;44029;52.956;4.772;2022-12-18T02:04:42;49.38;;;16.33;;
55489;SDS011;44029;52.956;4.772;2022-12-18T02:07:17;63.30;;;18.58;;
55489;SDS011;44029;52.956;4.772;2022-12-18T02:10:04;77.97;;;22.00;;
55489;SDS011;44029;52.956;4.772;2022-12-18T02:12:44;66.22;;;19.70;;
55489;SDS011;44029;52.956;4.772;2022-12-18T02:17:50;63.05;;;18.60;;
55489;SDS011;44029;52.956;4.772;2022-12-18T02:20:33;57.78;;;14.57;;
55489;SDS011;44029;52.956;4.772;2022-12-18T02:28:43;51.17;;;18.80;;
55489;SDS011;44029;52.956;4.772;2022-12-18T02:31:15;74.70;;;19.83;;
55489;SDS011;44029;52.956;4.772;2022-12-18T02:33:47;59.80;;;19.50;;
55489;SDS011;44029;52.956;4.772;2022-12-18T02:36:15;53.22;;;18.23;;
55489;SDS011;44029;52.956;4.772;2022-12-18T02:38:43;60.63;;;18.58;;
55489;SDS011;44029;52.956;4.772;2022-12-18T02:41:10;60.60;;;17.50;;
55489;SDS011;44029;52.956;4.772;2022-12-18T02:43:38;57.78;;;19.65;;
55489;SDS011;44029;52.956;4.772;2022-12-18T02:48:55;59.70;;;18.63;;
55489;SDS011;44029;52.956;4.772;2022-12-18T02:54:36;51.53;;;20.87;;
55489;SDS011;44029;52.956;4.772;2022-12-18T02:57:14;54.10;;;17.55;;
55489;SDS011;44029;52.956;4.772;2022-12-18T02:59:42;47.30;;;15.95;;
55489;SDS011;44029;52.956;4.772;2022-12-18T03:02:48;61.53;;;17.60;;
55489;SDS011;44029;52.956;4.772;2022-12-18T03:05:20;52.70;;;17.75;;
55489;SDS011;44029;52.956;4.772;2022-12-18T03:10:28;42.30;;;15.55;;
55489;SDS011;44029;52.956;4.772;2022-12-18T03:13:07;53.60;;;18.08;;
55489;SDS011;44029;52.956;4.772;2022-12-18T03:15:37;57.92;;;15.63;;
55489;SDS011;44029;52.956;4.772;2022-12-18T03:18:08;60.47;;;17.33;;
55489;SDS011;44029;52.956;4.772;2022-12-18T03:20:38;53.35;;;16.08;;
55489;SDS011;44029;52.956;4.772;2022-12-18T03:23:09;58.88;;;17.10;;
55489;SDS011;44029;52.956;4.772;2022-12-18T03:25:41;58.42;;;19.83;;
55489;SDS011;44029;52.956;4.772;2022-12-18T03:28:12;46.33;;;13.80;;
55489;SDS011;44029;52.956;4.772;2022-12-18T03:30:44;64.53;;;19.10;;
55489;SDS011;44029;52.956;4.772;2022-12-18T03:33:19;62.20;;;18.02;;
55489;SDS011;44029;52.956;4.772;2022-12-18T03:35:50;68.55;;;19.00;;
55489;SDS011;44029;52.956;4.772;2022-12-18T03:38:16;54.40;;;16.40;;
55489;SDS011;44029;52.956;4.772;2022-12-18T03:43:17;61.05;;;16.75;;
55489;SDS011;44029;52.956;4.772;2022-12-18T03:45:54;47.38;;;16.00;;
55489;SDS011;44029;52.956;4.772;2022-12-18T03:48:46;49.80;;;15.60;;
55489;SDS011;44029;52.956;4.772;2022-12-18T03:51:50;55.78;;;15.13;;
55489;SDS011;44029;52.956;4.772;2022-12-18T03:54:19;43.88;;;13.98;;
55489;SDS011;44029;52.956;4.772;2022-12-18T03:56:51;66.07;;;16.80;;
55489;SDS011;44029;52.956;4.772;2022-12-18T03:59:22;55.55;;;17.13;;
55489;SDS011;44029;52.956;4.772;2022-12-18T04:01:51;53.60;;;14.15;;
55489;SDS011;44029;52.956;4.772;2022-12-18T04:04:17;50.53;;;16.63;;
55489;SDS011;44029;52.956;4.772;2022-12-18T04:06:44;51.50;;;17.95;;
55489;SDS011;44029;52.956;4.772;2022-12-18T04:09:12;59.83;;;17.10;;
55489;SDS011;44029;52.956;4.772;2022-12-18T04:11:39;47.72;;;16.17;;
55489;SDS011;44029;52.956;4.772;2022-12-18T04:14:07;50.80;;;14.65;;
55489;SDS011;44029;52.956;4.772;2022-12-18T04:16:32;57.03;;;17.20;;
55489;SDS011;44029;52.956;4.772;2022-12-18T04:18:57;42.90;;;15.55;;
55489;SDS011;44029;52.956;4.772;2022-12-18T04:21:23;58.03;;;15.30;;
55489;SDS011;44029;52.956;4.772;2022-12-18T04:23:48;49.72;;;15.38;;
55489;SDS011;44029;52.956;4.772;2022-12-18T04:26:14;63.35;;;15.43;;
55489;SDS011;44029;52.956;4.772;2022-12-18T04:28:39;65.25;;;14.80;;
55489;SDS011;44029;52.956;4.772;2022-12-18T04:31:05;46.67;;;15.52;;
55489;SDS011;44029;52.956;4.772;2022-12-18T04:33:30;41.10;;;14.93;;
55489;SDS011;44029;52.956;4.772;2022-12-18T04:35:55;49.65;;;16.35;;
55489;SDS011;44029;52.956;4.772;2022-12-18T04:38:21;48.20;;;16.20;;
55489;SDS011;44029;52.956;4.772;2022-12-18T04:40:46;40.75;;;15.07;;
55489;SDS011;44029;52.956;4.772;2022-12-18T04:43:11;43.13;;;15.27;;
55489;SDS011;44029;52.956;4.772;2022-12-18T04:45:37;42.05;;;13.35;;
55489;SDS011;44029;52.956;4.772;2022-12-18T04:48:02;48.67;;;14.52;;
55489;SDS011;44029;52.956;4.772;2022-12-18T04:50:28;37.88;;;13.65;;
55489;SDS011;44029;52.956;4.772;2022-12-18T04:52:54;48.80;;;15.00;;
55489;SDS011;44029;52.956;4.772;2022-12-18T04:55:20;46.47;;;16.10;;
55489;SDS011;44029;52.956;4.772;2022-12-18T04:57:45;45.72;;;14.05;;
55489;SDS011;44029;52.956;4.772;2022-12-18T05:00:11;43.15;;;14.57;;
55489;SDS011;44029;52.956;4.772;2022-12-18T05:02:37;50.17;;;15.57;;
55489;SDS011;44029;52.956;4.772;2022-12-18T05:05:03;38.03;;;15.07;;
55489;SDS011;44029;52.956;4.772;2022-12-18T05:07:28;58.42;;;18.02;;
55489;SDS011;44029;52.956;4.772;2022-12-18T05:09:54;43.92;;;15.45;;
55489;SDS011;44029;52.956;4.772;2022-12-18T05:12:19;42.08;;;14.80;;
55489;SDS011;44029;52.956;4.772;2022-12-18T05:14:44;46.05;;;15.50;;
55489;SDS011;44029;52.956;4.772;2022-12-18T05:17:10;40.65;;;13.48;;
55489;SDS011;44029;52.956;4.772;2022-12-18T05:19:35;35.05;;;13.70;;
55489;SDS011;44029;52.956;4.772;2022-12-18T05:22:02;43.60;;;16.45;;
55489;SDS011;44029;52.956;4.772;2022-12-18T05:24:27;42.03;;;13.40;;
55489;SDS011;44029;52.956;4.772;2022-12-18T05:26:53;44.58;;;15.63;;
55489;SDS011;44029;52.956;4.772;2022-12-18T05:29:18;44.70;;;15.07;;
55489;SDS011;44029;52.956;4.772;2022-12-18T05:31:43;46.95;;;15.60;;
55489;SDS011;44029;52.956;4.772;2022-12-18T05:34:09;44.53;;;16.90;;
55489;SDS011;44029;52.956;4.772;2022-12-18T05:36:34;48.67;;;16.00;;
55489;SDS011;44029;52.956;4.772;2022-12-18T05:39:00;40.30;;;16.25;;
55489;SDS011;44029;52.956;4.772;2022-12-18T05:41:25;42.72;;;12.82;;
55489;SDS011;44029;52.956;4.772;2022-12-18T05:43:51;36.78;;;13.50;;
55489;SDS011;44029;52.956;4.772;2022-12-18T05:46:17;39.72;;;12.70;;
55489;SDS011;44029;52.956;4.772;2022-12-18T05:48:43;41.17;;;13.23;;
55489;SDS011;44029;52.956;4.772;2022-12-18T05:51:10;39.30;;;13.32;;
55489;SDS011;44029;52.956;4.772;2022-12-18T05:53:39;48.33;;;14.15;;
55489;SDS011;44029;52.956;4.772;2022-12-18T05:56:06;41.08;;;14.57;;
55489;SDS011;44029;52.956;4.772;2022-12-18T05:58:34;39.83;;;14.65;;
55489;SDS011;44029;52.956;4.772;2022-12-18T06:01:10;37.08;;;15.70;;
55489;SDS011;44029;52.956;4.772;2022-12-18T06:03:38;39.45;;;15.93;;
55489;SDS011;44029;52.956;4.772;2022-12-18T06:06:04;27.33;;;10.90;;
55489;SDS011;44029;52.956;4.772;2022-12-18T06:08:37;41.13;;;15.18;;
55489;SDS011;44029;52.956;4.772;2022-12-18T06:11:02;41.40;;;13.88;;
55489;SDS011;44029;52.956;4.772;2022-12-18T06:13:27;33.38;;;13.30;;
55489;SDS011;44029;52.956;4.772;2022-12-18T06:15:53;39.65;;;13.85;;
55489;SDS011;44029;52.956;4.772;2022-12-18T06:18:18;35.58;;;14.27;;
55489;SDS011;44029;52.956;4.772;2022-12-18T06:20:43;32.30;;;13.35;;
55489;SDS011;44029;52.956;4.772;2022-12-18T06:23:09;41.38;;;15.88;;
55489;SDS011;44029;52.956;4.772;2022-12-18T06:25:36;29.20;;;12.93;;
55489;SDS011;44029;52.956;4.772;2022-12-18T06:28:02;34.33;;;13.43;;
55489;SDS011;44029;52.956;4.772;2022-12-18T06:30:28;31.95;;;13.00;;
55489;SDS011;44029;52.956;4.772;2022-12-18T06:32:53;48.22;;;16.13;;
55489;SDS011;44029;52.956;4.772;2022-12-18T06:35:18;48.13;;;16.77;;
55489;SDS011;44029;52.956;4.772;2022-12-18T06:37:44;43.63;;;15.18;;
55489;SDS011;44029;52.956;4.772;2022-12-18T06:40:09;48.17;;;14.05;;
55489;SDS011;44029;52.956;4.772;2022-12-18T06:42:34;43.78;;;16.65;;
55489;SDS011;44029;52.956;4.772;2022-12-18T06:45:00;38.10;;;14.07;;
55489;SDS011;44029;52.956;4.772;2022-12-18T06:47:25;40.08;;;14.48;;
55489;SDS011;44029;52.956;4.772;2022-12-18T06:49:50;42.70;;;14.05;;
55489;SDS011;44029;52.956;4.772;2022-12-18T06:52:16;35.45;;;15.07;;
55489;SDS011;44029;52.956;4.772;2022-12-18T06:54:41;36.45;;;15.93;;
55489;SDS011;44029;52.956;4.772;2022-12-18T06:57:07;41.10;;;13.15;;
55489;SDS011;44029;52.956;4.772;2022-12-18T06:59:32;52.15;;;16.67;;
55489;SDS011;44029;52.956;4.772;2022-12-18T07:01:58;41.17;;;15.75;;
55489;SDS011;44029;52.956;4.772;2022-12-18T07:04:27;48.65;;;17.42;;
55489;SDS011;44029;52.956;4.772;2022-12-18T07:06:54;44.47;;;15.45;;
55489;SDS011;44029;52.956;4.772;2022-12-18T07:09:19;42.25;;;14.52;;
55489;SDS011;44029;52.956;4.772;2022-12-18T07:11:45;44.25;;;16.67;;
55489;SDS011;44029;52.956;4.772;2022-12-18T07:14:10;44.95;;;15.65;;
55489;SDS011;44029;52.956;4.772;2022-12-18T07:16:35;57.55;;;19.83;;
55489;SDS011;44029;52.956;4.772;2022-12-18T07:19:01;35.70;;;14.63;;
55489;SDS011;44029;52.956;4.772;2022-12-18T07:21:26;46.60;;;18.45;;
55489;SDS011;44029;52.956;4.772;2022-12-18T07:23:51;40.45;;;17.23;;
55489;SDS011;44029;52.956;4.772;2022-12-18T07:26:18;38.13;;;14.35;;
55489;SDS011;44029;52.956;4.772;2022-12-18T07:28:44;51.13;;;17.42;;
55489;SDS011;44029;52.956;4.772;2022-12-18T07:31:14;51.30;;;17.95;;
55489;SDS011;44029;52.956;4.772;2022-12-18T07:33:41;46.08;;;18.35;;
55489;SDS011;44029;52.956;4.772;2022-12-18T07:36:07;54.45;;;20.33;;
55489;SDS011;44029;52.956;4.772;2022-12-18T07:38:35;53.30;;;20.27;;
55489;SDS011;44029;52.956;4.772;2022-12-18T07:41:00;52.92;;;17.02;;
55489;SDS011;44029;52.956;4.772;2022-12-18T07:43:27;61.50;;;19.63;;
55489;SDS011;44029;52.956;4.772;2022-12-18T07:45:52;48.15;;;21.13;;
55489;SDS011;44029;52.956;4.772;2022-12-18T07:48:17;60.30;;;19.60;;
55489;SDS011;44029;52.956;4.772;2022-12-18T07:50:43;53.67;;;18.98;;
55489;SDS011;44029;52.956;4.772;2022-12-18T07:53:08;47.30;;;16.20;;
55489;SDS011;44029;52.956;4.772;2022-12-18T07:55:33;59.42;;;20.80;;
55489;SDS011;44029;52.956;4.772;2022-12-18T07:58:02;47.10;;;19.30;;
55489;SDS011;44029;52.956;4.772;2022-12-18T08:00:29;45.72;;;17.17;;
55489;SDS011;44029;52.956;4.772;2022-12-18T08:02:54;49.95;;;18.08;;
55489;SDS011;44029;52.956;4.772;2022-12-18T08:05:20;45.78;;;17.95;;
55489;SDS011;44029;52.956;4.772;2022-12-18T08:07:46;39.60;;;15.23;;
55489;SDS011;44029;52.956;4.772;2022-12-18T08:10:11;39.15;;;14.60;;
55489;SDS011;44029;52.956;4.772;2022-12-18T08:12:37;40.42;;;15.40;;
55489;SDS011;44029;52.956;4.772;2022-12-18T08:15:03;30.65;;;13.35;;
55489;SDS011;44029;52.956;4.772;2022-12-18T08:17:28;33.67;;;14.98;;
55489;SDS011;44029;52.956;4.772;2022-12-18T08:19:54;31.77;;;11.93;;
55489;SDS011;44029;52.956;4.772;2022-12-18T08:22:19;40.70;;;13.38;;
55489;SDS011;44029;52.956;4.772;2022-12-18T08:24:44;35.40;;;12.68;;
55489;SDS011;44029;52.956;4.772;2022-12-18T08:27:10;13.05;;;5.70;;
55489;SDS011;44029;52.956;4.772;2022-12-18T08:29:35;26.65;;;10.60;;
55489;SDS011;44029;52.956;4.772;2022-12-18T08:32:00;35.53;;;13.27;;
55489;SDS011;44029;52.956;4.772;2022-12-18T08:34:26;26.52;;;10.90;;
55489;SDS011;44029;52.956;4.772;2022-12-18T08:36:51;37.70;;;13.40;;
55489;SDS011;44029;52.956;4.772;2022-12-18T08:39:16;33.28;;;12.68;;
55489;SDS011;44029;52.956;4.772;2022-12-18T08:41:42;35.53;;;14.07;;
55489;SDS011;44029;52.956;4.772;2022-12-18T08:44:07;41.17;;;14.82;;
55489;SDS011;44029;52.956;4.772;2022-12-18T08:46:51;31.88;;;12.77;;
55489;SDS011;44029;52.956;4.772;2022-12-18T08:49:16;28.42;;;13.57;;
55489;SDS011;44029;52.956;4.772;2022-12-18T08:51:42;29.33;;;10.77;;
55489;SDS011;44029;52.956;4.772;2022-12-18T08:54:08;36.25;;;12.68;;
55489;SDS011;44029;52.956;4.772;2022-12-18T08:56:36;36.50;;;14.23;;
55489;SDS011;44029;52.956;4.772;2022-12-18T08:59:02;37.78;;;12.90;;
55489;SDS011;44029;52.956;4.772;2022-12-18T09:01:29;37.20;;;13.98;;
55489;SDS011;44029;52.956;4.772;2022-12-18T09:03:54;34.15;;;12.88;;
55489;SDS011;44029;52.956;4.772;2022-12-18T09:06:20;43.13;;;13.60;;
55489;SDS011;44029;52.956;4.772;2022-12-18T09:08:47;30.80;;;13.43;;
55489;SDS011;44029;52.956;4.772;2022-12-18T09:11:13;32.45;;;12.23;;
55489;SDS011;44029;52.956;4.772;2022-12-18T09:13:43;36.20;;;13.70;;
55489;SDS011;44029;52.956;4.772;2022-12-18T09:16:08;33.70;;;15.05;;
55489;SDS011;44029;52.956;4.772;2022-12-18T09:18:34;32.58;;;13.38;;
55489;SDS011;44029;52.956;4.772;2022-12-18T09:21:00;34.10;;;13.20;;
55489;SDS011;44029;52.956;4.772;2022-12-18T09:23:32;27.30;;;13.05;;
55489;SDS011;44029;52.956;4.772;2022-12-18T09:26:01;26.02;;;11.63;;
55489;SDS011;44029;52.956;4.772;2022-12-18T09:28:26;21.75;;;9.02;;
55489;SDS011;44029;52.956;4.772;2022-12-18T09:30:52;24.40;;;12.50;;
55489;SDS011;44029;52.956;4.772;2022-12-18T09:33:17;29.45;;;12.43;;
55489;SDS011;44029;52.956;4.772;2022-12-18T09:35:43;21.85;;;9.38;;
55489;SDS011;44029;52.956;4.772;2022-12-18T09:38:11;26.50;;;12.43;;
55489;SDS011;44029;52.956;4.772;2022-12-18T09:43:24;28.65;;;11.38;;
55489;SDS011;44029;52.956;4.772;2022-12-18T09:45:56;28.05;;;11.43;;
55489;SDS011;44029;52.956;4.772;2022-12-18T09:48:31;20.60;;;10.52;;
55489;SDS011;44029;52.956;4.772;2022-12-18T09:51:05;19.60;;;10.07;;
55489;SDS011;44029;52.956;4.772;2022-12-18T09:53:38;25.75;;;10.57;;
55489;SDS011;44029;52.956;4.772;2022-12-18T09:56:06;22.20;;;9.50;;
55489;SDS011;44029;52.956;4.772;2022-12-18T10:01:15;20.75;;;10.35;;
55489;SDS011;44029;52.956;4.772;2022-12-18T10:03:45;25.10;;;9.50;;
55489;SDS011;44029;52.956;4.772;2022-12-18T10:11:48;21.90;;;7.65;;
55489;SDS011;44029;52.956;4.772;2022-12-18T10:16:59;18.77;;;8.82;;
55489;SDS011;44029;52.956;4.772;2022-12-18T10:19:47;17.88;;;9.40;;
55489;SDS011;44029;52.956;4.772;2022-12-18T10:22:22;24.55;;;9.77;;
55489;SDS011;44029;52.956;4.772;2022-12-18T10:24:59;18.42;;;9.48;;
55489;SDS011;44029;52.956;4.772;2022-12-18T10:27:30;12.75;;;6.93;;
55489;SDS011;44029;52.956;4.772;2022-12-18T10:29:57;22.65;;;9.80;;
55489;SDS011;44029;52.956;4.772;2022-12-18T10:32:24;15.88;;;7.38;;
55489;SDS011;44029;52.956;4.772;2022-12-18T10:34:54;19.33;;;10.02;;
55489;SDS011;44029;52.956;4.772;2022-12-18T10:37:24;17.73;;;9.10;;
55489;SDS011;44029;52.956;4.772;2022-12-18T10:40:12;21.88;;;10.23;;
55489;SDS011;44029;52.956;4.772;2022-12-18T10:42:38;19.40;;;8.80;;
55489;SDS011;44029;52.956;4.772;2022-12-18T10:45:09;22.75;;;8.95;;
55489;SDS011;44029;52.956;4.772;2022-12-18T10:47:42;21.80;;;9.35;;
55489;SDS011;44029;52.956;4.772;2022-12-18T10:50:18;14.73;;;7.80;;
55489;SDS011;44029;52.956;4.772;2022-12-18T10:52:55;19.45;;;9.70;;
55489;SDS011;44029;52.956;4.772;2022-12-18T10:55:22;19.77;;;8.38;;
55489;SDS011;44029;52.956;4.772;2022-12-18T10:57:49;23.90;;;8.32;;
55489;SDS011;44029;52.956;4.772;2022-12-18T11:00:47;20.33;;;9.07;;
55489;SDS011;44029;52.956;4.772;2022-12-18T11:03:17;23.55;;;9.18;;
55489;SDS011;44029;52.956;4.772;2022-12-18T11:06:12;21.33;;;7.73;;
55489;SDS011;44029;52.956;4.772;2022-12-18T11:08:42;34.65;;;10.25;;
55489;SDS011;44029;52.956;4.772;2022-12-18T11:11:21;24.58;;;8.70;;
55489;SDS011;44029;52.956;4.772;2022-12-18T11:13:51;13.85;;;8.18;;
55489;SDS011;44029;52.956;4.772;2022-12-18T11:16:19;19.40;;;8.27;;
55489;SDS011;44029;52.956;4.772;2022-12-18T11:18:45;20.88;;;9.00;;
55489;SDS011;44029;52.956;4.772;2022-12-18T11:21:11;19.45;;;8.63;;
55489;SDS011;44029;52.956;4.772;2022-12-18T11:23:44;18.70;;;9.20;;
55489;SDS011;44029;52.956;4.772;2022-12-18T11:26:11;22.65;;;8.68;;
55489;SDS011;44029;52.956;4.772;2022-12-18T11:31:29;10.60;;;4.95;;
55489;SDS011;44029;52.956;4.772;2022-12-18T11:36:38;8.57;;;4.75;;
55489;SDS011;44029;52.956;4.772;2022-12-18T11:39:12;18.45;;;8.88;;
55489;SDS011;44029;52.956;4.772;2022-12-18T11:45:14;16.58;;;7.57;;
55489;SDS011;44029;52.956;4.772;2022-12-18T11:50:44;20.67;;;8.07;;
55489;SDS011;44029;52.956;4.772;2022-12-18T11:53:14;20.17;;;9.07;;
55489;SDS011;44029;52.956;4.772;2022-12-18T11:58:18;20.25;;;10.05;;
55489;SDS011;44029;52.956;4.772;2022-12-18T12:00:56;15.45;;;8.45;;
55489;SDS011;44029;52.956;4.772;2022-12-18T12:14:34;15.82;;;7.60;;
55489;SDS011;44029;52.956;4.772;2022-12-18T12:19:48;14.23;;;7.03;;
55489;SDS011;44029;52.956;4.772;2022-12-18T12:33:25;16.05;;;7.72;;
55489;SDS011;44029;52.956;4.772;2022-12-18T12:38:51;16.52;;;7.03;;
55489;SDS011;44029;52.956;4.772;2022-12-18T12:41:21;17.85;;;8.18;;
55489;SDS011;44029;52.956;4.772;2022-12-18T12:44:12;15.55;;;7.13;;
55489;SDS011;44029;52.956;4.772;2022-12-18T12:46:41;17.02;;;7.40;;
55489;SDS011;44029;52.956;4.772;2022-12-18T12:49:13;12.63;;;6.78;;
55489;SDS011;44029;52.956;4.772;2022-12-18T12:51:50;18.15;;;7.07;;
55489;SDS011;44029;52.956;4.772;2022-12-18T12:54:24;23.13;;;8.00;;
55489;SDS011;44029;52.956;4.772;2022-12-18T12:57:13;22.52;;;9.63;;
55489;SDS011;44029;52.956;4.772;2022-12-18T13:15:39;22.20;;;8.38;;
55489;SDS011;44029;52.956;4.772;2022-12-18T13:20:38;14.63;;;7.13;;
55489;SDS011;44029;52.956;4.772;2022-12-18T13:30:58;17.80;;;8.45;;
55489;SDS011;44029;52.956;4.772;2022-12-18T13:36:00;17.52;;;8.15;;
55489;SDS011;44029;52.956;4.772;2022-12-18T13:40:56;15.25;;;7.40;;
55489;SDS011;44029;52.956;4.772;2022-12-18T13:43:43;15.43;;;7.18;;
55489;SDS011;44029;52.956;4.772;2022-12-18T13:51:39;18.25;;;8.75;;
55489;SDS011;44029;52.956;4.772;2022-12-18T13:54:18;16.45;;;7.65;;
55489;SDS011;44029;52.956;4.772;2022-12-18T13:56:45;23.85;;;9.52;;
55489;SDS011;44029;52.956;4.772;2022-12-18T13:59:13;24.30;;;11.25;;
55489;SDS011;44029;52.956;4.772;2022-12-18T14:01:43;25.55;;;11.95;;
55489;SDS011;44029;52.956;4.772;2022-12-18T14:07:07;14.25;;;6.80;;
55489;SDS011;44029;52.956;4.772;2022-12-18T14:10:21;15.95;;;7.15;;
55489;SDS011;44029;52.956;4.772;2022-12-18T14:12:29;15.60;;;6.68;;
55489;SDS011;44029;52.956;4.772;2022-12-18T14:15:34;14.35;;;7.05;;
55489;SDS011;44029;52.956;4.772;2022-12-18T14:18:20;18.48;;;8.30;;
55489;SDS011;44029;52.956;4.772;2022-12-18T14:20:54;22.10;;;8.85;;
55489;SDS011;44029;52.956;4.772;2022-12-18T14:23:38;19.13;;;9.52;;
55489;SDS011;44029;52.956;4.772;2022-12-18T14:28:54;16.63;;;9.40;;
55489;SDS011;44029;52.956;4.772;2022-12-18T14:31:21;21.77;;;11.35;;
55489;SDS011;44029;52.956;4.772;2022-12-18T14:33:48;20.92;;;10.30;;
55489;SDS011;44029;52.956;4.772;2022-12-18T14:36:18;25.00;;;9.43;;
55489;SDS011;44029;52.956;4.772;2022-12-18T14:38:53;14.88;;;6.85;;
55489;SDS011;44029;52.956;4.772;2022-12-18T14:41:21;16.27;;;5.57;;
55489;SDS011;44029;52.956;4.772;2022-12-18T14:43:49;18.25;;;8.82;;
55489;SDS011;44029;52.956;4.772;2022-12-18T14:46:49;45.70;;;21.42;;
55489;SDS011;44029;52.956;4.772;2022-12-18T14:52:03;15.82;;;8.77;;
55489;SDS011;44029;52.956;4.772;2022-12-18T14:54:31;13.70;;;7.63;;
55489;SDS011;44029;52.956;4.772;2022-12-18T14:57:03;13.20;;;7.07;;
55489;SDS011;44029;52.956;4.772;2022-12-18T14:59:39;15.80;;;7.90;;
55489;SDS011;44029;52.956;4.772;2022-12-18T15:02:15;18.95;;;6.78;;
55489;SDS011;44029;52.956;4.772;2022-12-18T15:04:45;15.68;;;8.45;;
55489;SDS011;44029;52.956;4.772;2022-12-18T15:07:15;21.30;;;10.50;;
55489;SDS011;44029;52.956;4.772;2022-12-18T15:09:42;20.73;;;9.70;;
55489;SDS011;44029;52.956;4.772;2022-12-18T15:12:31;17.83;;;7.22;;
55489;SDS011;44029;52.956;4.772;2022-12-18T15:14:59;16.30;;;8.15;;
55489;SDS011;44029;52.956;4.772;2022-12-18T15:17:25;33.53;;;15.85;;
55489;SDS011;44029;52.956;4.772;2022-12-18T15:19:52;15.50;;;6.43;;
55489;SDS011;44029;52.956;4.772;2022-12-18T15:22:27;21.65;;;10.57;;
55489;SDS011;44029;52.956;4.772;2022-12-18T15:24:55;23.65;;;10.80;;
55489;SDS011;44029;52.956;4.772;2022-12-18T15:27:26;25.55;;;10.57;;
55489;SDS011;44029;52.956;4.772;2022-12-18T15:30:00;24.08;;;11.68;;
55489;SDS011;44029;52.956;4.772;2022-12-18T15:32:26;20.80;;;9.95;;
55489;SDS011;44029;52.956;4.772;2022-12-18T15:35:01;25.38;;;13.70;;
55489;SDS011;44029;52.956;4.772;2022-12-18T15:37:35;15.73;;;8.75;;
55489;SDS011;44029;52.956;4.772;2022-12-18T15:40:04;22.15;;;12.02;;
55489;SDS011;44029;52.956;4.772;2022-12-18T15:42:30;23.83;;;9.98;;
55489;SDS011;44029;52.956;4.772;2022-12-18T15:45:14;17.70;;;9.77;;
55489;SDS011;44029;52.956;4.772;2022-12-18T15:47:39;17.73;;;8.73;;
55489;SDS011;44029;52.956;4.772;2022-12-18T15:50:07;17.17;;;7.60;;
55489;SDS011;44029;52.956;4.772;2022-12-18T15:52:39;18.00;;;8.65;;
55489;SDS011;44029;52.956;4.772;2022-12-18T15:55:10;20.67;;;10.93;;
55489;SDS011;44029;52.956;4.772;2022-12-18T15:57:56;18.35;;;8.43;;
55489;SDS011;44029;52.956;4.772;2022-12-18T16:00:21;23.02;;;12.50;;
55489;SDS011;44029;52.956;4.772;2022-12-18T16:02:47;29.63;;;14.00;;
55489;SDS011;44029;52.956;4.772;2022-12-18T16:05:16;18.40;;;9.95;;
55489;SDS011;44029;52.956;4.772;2022-12-18T16:07:43;19.05;;;10.73;;
55489;SDS011;44029;52.956;4.772;2022-12-18T16:10:09;18.38;;;9.98;;
55489;SDS011;44029;52.956;4.772;2022-12-18T16:12:35;24.63;;;11.30;;
55489;SDS011;44029;52.956;4.772;2022-12-18T16:15:01;22.50;;;9.18;;
55489;SDS011;44029;52.956;4.772;2022-12-18T16:17:26;17.55;;;8.00;;
55489;SDS011;44029;52.956;4.772;2022-12-18T16:19:52;16.00;;;7.43;;
55489;SDS011;44029;52.956;4.772;2022-12-18T16:22:21;16.02;;;7.95;;
55489;SDS011;44029;52.956;4.772;2022-12-18T16:24:52;20.15;;;8.43;;
55489;SDS011;44029;52.956;4.772;2022-12-18T16:27:18;18.63;;;7.35;;
55489;SDS011;44029;52.956;4.772;2022-12-18T16:29:44;16.27;;;7.40;;
55489;SDS011;44029;52.956;4.772;2022-12-18T16:32:14;15.27;;;7.60;;
55489;SDS011;44029;52.956;4.772;2022-12-18T16:34:41;22.08;;;8.25;;
55489;SDS011;44029;52.956;4.772;2022-12-18T16:37:07;13.52;;;7.13;;
55489;SDS011;44029;52.956;4.772;2022-12-18T16:39:34;14.95;;;7.57;;
55489;SDS011;44029;52.956;4.772;2022-12-18T16:42:04;16.13;;;6.97;;